PWSweather.com
Personal Weather Stations
Station Observations
IMAZOWIE6
WarszawaPL

WarszawaPL

Lat: 52.27957, Lon: 21.05489

Elevation: 100

Station Type: WS1080

http://stacjapogody.waw.pl/

High Low Average
Temperature 53.2°F11.8°C 41.2°F5.1°C 47.1°F8.4°C
Dew Point -167.5°F-110.8°C -168.7°F-111.5°C -168.1°F-111.2°C
Winds 6.2 mph 10.0 kmh Calm Calm 2.0 mph N3.2 kmh N
Wind Gusts 10.8 mph17.4 kmh 2.0 mph3.2 kmh 6.0 mph9.7 kmh
Humidity - - -
Pressure 29.43 in996.6 mb 28.92 in979.3 mb -
Precipitation 0.00 in0.0 mm - -
Hour Temp Dew Point Humidity Winds Wind Gusts Pressure Precip Precip Rate Daily Precip Total
12:00 AM 46.4°F8.0°C -168.2°F-111.2°C - 2.0 mph N3.2 kmh N 6.8 mph10.9 kmh 28.94 in980.0 mb 0.00 in0.0 mm 0.00 in0.0 mm 0.00 in0.0 mm
12:15 AM 46.6°F8.1°C -168.1°F-111.2°C - 1.4 mph N2.3 kmh N 3.4 mph5.5 kmh 28.94 in980.0 mb 0.00 in0.0 mm 0.00 in0.0 mm 0.00 in0.0 mm
12:30 AM 46.4°F8.0°C -168.2°F-111.2°C - 1.4 mph N2.3 kmh N 4.0 mph6.4 kmh 28.93 in979.7 mb 0.00 in0.0 mm 0.00 in0.0 mm 0.00 in0.0 mm
12:45 AM 46.6°F8.1°C -168.1°F-111.2°C - 1.4 mph N2.3 kmh N 5.4 mph8.7 kmh 28.93 in979.7 mb 0.00 in0.0 mm 0.00 in0.0 mm 0.00 in0.0 mm
01:00 AM 46.6°F8.1°C -168.1°F-111.2°C - 2.0 mph N3.2 kmh N 6.2 mph10.0 kmh 28.93 in979.7 mb 0.00 in0.0 mm 0.00 in0.0 mm 0.00 in0.0 mm
01:15 AM 46.6°F8.1°C -168.1°F-111.2°C - 1.4 mph N2.3 kmh N 4.0 mph6.4 kmh 28.92 in979.3 mb 0.00 in0.0 mm 0.00 in0.0 mm 0.00 in0.0 mm
01:30 AM 46.8°F8.2°C -168.1°F-111.2°C - 2.0 mph N3.2 kmh N 8.2 mph13.2 kmh 28.92 in979.3 mb 0.00 in0.0 mm 0.00 in0.0 mm 0.00 in0.0 mm
01:45 AM 46.6°F8.1°C -168.1°F-111.2°C - 3.4 mph N5.5 kmh N 7.4 mph11.9 kmh 28.93 in979.7 mb 0.00 in0.0 mm 0.00 in0.0 mm 0.00 in0.0 mm
02:00 AM 46.4°F8.0°C -168.2°F-111.2°C - 1.4 mph N2.3 kmh N 5.4 mph8.7 kmh 28.93 in979.7 mb 0.00 in0.0 mm 0.00 in0.0 mm 0.00 in0.0 mm
02:20 AM 46.2°F7.9°C -168.2°F-111.2°C - 1.4 mph N2.3 kmh N 4.0 mph6.4 kmh 28.93 in979.7 mb 0.00 in0.0 mm 0.00 in0.0 mm 0.00 in0.0 mm
02:30 AM 46.0°F7.8°C -168.2°F-111.2°C - 0.6 mph N1.0 kmh N 4.0 mph6.4 kmh 28.93 in979.7 mb 0.00 in0.0 mm 0.00 in0.0 mm 0.00 in0.0 mm
02:45 AM 46.0°F7.8°C -168.2°F-111.2°C - 1.4 mph N2.3 kmh N 6.2 mph10.0 kmh 28.94 in980.0 mb 0.00 in0.0 mm 0.00 in0.0 mm 0.00 in0.0 mm
03:00 AM 45.9°F7.7°C -168.2°F-111.2°C - 2.0 mph N3.2 kmh N 6.8 mph10.9 kmh 28.93 in979.7 mb 0.00 in0.0 mm 0.00 in0.0 mm 0.00 in0.0 mm
03:15 AM 45.9°F7.7°C -168.2°F-111.2°C - 1.4 mph N2.3 kmh N 6.2 mph10.0 kmh 28.93 in979.7 mb 0.00 in0.0 mm 0.00 in0.0 mm 0.00 in0.0 mm
03:30 AM 46.0°F7.8°C -168.2°F-111.2°C - 2.8 mph N4.5 kmh N 6.8 mph10.9 kmh 28.92 in979.3 mb 0.00 in0.0 mm 0.00 in0.0 mm 0.00 in0.0 mm
03:45 AM 45.7°F7.6°C -168.2°F-111.2°C - 0.6 mph N1.0 kmh N 3.4 mph5.5 kmh 28.92 in979.3 mb 0.00 in0.0 mm 0.00 in0.0 mm 0.00 in0.0 mm
04:00 AM 46.0°F7.8°C -168.2°F-111.2°C - 0.6 mph N1.0 kmh N 4.8 mph7.7 kmh 28.92 in979.3 mb 0.00 in0.0 mm 0.00 in0.0 mm 0.00 in0.0 mm
04:20 AM 46.0°F7.8°C -168.2°F-111.2°C - 1.4 mph N2.3 kmh N 4.0 mph6.4 kmh 28.93 in979.7 mb 0.00 in0.0 mm 0.00 in0.0 mm 0.00 in0.0 mm
04:35 AM 46.0°F7.8°C -168.2°F-111.2°C - 2.0 mph N3.2 kmh N 6.8 mph10.9 kmh 28.93 in979.7 mb 0.00 in0.0 mm 0.00 in0.0 mm 0.00 in0.0 mm
04:50 AM 46.0°F7.8°C -168.2°F-111.2°C - 2.0 mph N3.2 kmh N 8.8 mph14.2 kmh 28.94 in980.0 mb 0.00 in0.0 mm 0.00 in0.0 mm 0.00 in0.0 mm
05:05 AM 46.0°F7.8°C -168.2°F-111.2°C - 2.8 mph N4.5 kmh N 4.8 mph7.7 kmh 28.94 in980.0 mb 0.00 in0.0 mm 0.00 in0.0 mm 0.00 in0.0 mm
05:20 AM 45.9°F7.7°C -168.2°F-111.2°C - 2.0 mph N3.2 kmh N 5.4 mph8.7 kmh 28.94 in980.0 mb 0.00 in0.0 mm 0.00 in0.0 mm 0.00 in0.0 mm
05:35 AM 45.9°F7.7°C -168.2°F-111.2°C - 2.0 mph N3.2 kmh N 6.2 mph10.0 kmh 28.94 in980.0 mb 0.00 in0.0 mm 0.00 in0.0 mm 0.00 in0.0 mm
05:50 AM 45.9°F7.7°C -168.2°F-111.2°C - Calm Calm 2.8 mph4.5 kmh 28.94 in980.0 mb 0.00 in0.0 mm 0.00 in0.0 mm 0.00 in0.0 mm
06:05 AM 45.9°F7.7°C -168.2°F-111.2°C - 1.4 mph N2.3 kmh N 4.0 mph6.4 kmh 28.95 in980.4 mb 0.00 in0.0 mm 0.00 in0.0 mm 0.00 in0.0 mm
06:16 AM 46.0°F7.8°C -168.2°F-111.2°C - 1.4 mph N2.3 kmh N 4.8 mph7.7 kmh 28.95 in980.4 mb 0.00 in0.0 mm 0.00 in0.0 mm 0.00 in0.0 mm
06:32 AM 46.0°F7.8°C -168.2°F-111.2°C - 2.8 mph N4.5 kmh N 6.2 mph10.0 kmh 28.95 in980.4 mb 0.00 in0.0 mm 0.00 in0.0 mm 0.00 in0.0 mm
06:47 AM 46.6°F8.1°C -168.1°F-111.2°C - Calm Calm 2.8 mph4.5 kmh 28.96 in980.7 mb 0.00 in0.0 mm 0.00 in0.0 mm 0.00 in0.0 mm
07:02 AM 46.8°F8.2°C -168.1°F-111.2°C - Calm Calm 4.0 mph6.4 kmh 28.96 in980.7 mb 0.00 in0.0 mm 0.00 in0.0 mm 0.00 in0.0 mm
07:18 AM 46.8°F8.2°C -168.1°F-111.2°C - 0.6 mph N1.0 kmh N 6.8 mph10.9 kmh 28.96 in980.7 mb 0.00 in0.0 mm 0.00 in0.0 mm 0.00 in0.0 mm
07:34 AM 46.9°F8.3°C -168.1°F-111.2°C - 2.8 mph N4.5 kmh N 4.8 mph7.7 kmh 28.97 in981.0 mb 0.00 in0.0 mm 0.00 in0.0 mm 0.00 in0.0 mm
07:50 AM 47.3°F8.5°C -168.1°F-111.2°C - Calm Calm 4.0 mph6.4 kmh 28.99 in981.7 mb 0.00 in0.0 mm 0.00 in0.0 mm 0.00 in0.0 mm
08:01 AM 47.5°F8.6°C -168.1°F-111.2°C - 4.8 mph N7.7 kmh N 10.8 mph17.4 kmh 28.98 in981.4 mb 0.00 in0.0 mm 0.00 in0.0 mm 0.00 in0.0 mm
08:17 AM 48.0°F8.9°C -168.0°F-111.1°C - 2.0 mph N3.2 kmh N 4.8 mph7.7 kmh 28.99 in981.7 mb 0.00 in0.0 mm 0.00 in0.0 mm 0.00 in0.0 mm
08:33 AM 48.4°F9.1°C -168.0°F-111.1°C - 1.4 mph N2.3 kmh N 6.2 mph10.0 kmh 28.98 in981.4 mb 0.00 in0.0 mm 0.00 in0.0 mm 0.00 in0.0 mm
08:49 AM 48.6°F9.2°C -167.9°F-111.1°C - 2.8 mph N4.5 kmh N 5.4 mph8.7 kmh 29.00 in982.1 mb 0.00 in0.0 mm 0.00 in0.0 mm 0.00 in0.0 mm
09:05 AM 48.7°F9.3°C -167.9°F-111.1°C - 2.0 mph N3.2 kmh N 4.8 mph7.7 kmh 29.00 in982.1 mb 0.00 in0.0 mm 0.00 in0.0 mm 0.00 in0.0 mm
09:16 AM 49.5°F9.7°C -167.9°F-111.1°C - 3.4 mph N5.5 kmh N 6.2 mph10.0 kmh 29.01 in982.4 mb 0.00 in0.0 mm 0.00 in0.0 mm 0.00 in0.0 mm
09:32 AM 50.2°F10.1°C -167.8°F-111.0°C - 4.0 mph N6.4 kmh N 8.2 mph13.2 kmh 29.02 in982.7 mb 0.00 in0.0 mm 0.00 in0.0 mm 0.00 in0.0 mm
09:48 AM 50.5°F10.3°C -167.7°F-110.9°C - 3.4 mph N5.5 kmh N 6.8 mph10.9 kmh 29.03 in983.1 mb 0.00 in0.0 mm 0.00 in0.0 mm 0.00 in0.0 mm
10:04 AM 50.7°F10.4°C -167.7°F-110.9°C - 2.8 mph N4.5 kmh N 5.4 mph8.7 kmh 29.03 in983.1 mb 0.00 in0.0 mm 0.00 in0.0 mm 0.00 in0.0 mm
10:20 AM 51.6°F10.9°C -167.6°F-110.9°C - 2.8 mph N4.5 kmh N 4.0 mph6.4 kmh 29.04 in983.4 mb 0.00 in0.0 mm 0.00 in0.0 mm 0.00 in0.0 mm
10:36 AM 52.0°F11.1°C -167.6°F-110.9°C - 1.4 mph N2.3 kmh N 4.0 mph6.4 kmh 29.05 in983.7 mb 0.00 in0.0 mm 0.00 in0.0 mm 0.00 in0.0 mm
10:46 AM 52.0°F11.1°C -167.6°F-110.9°C - 2.0 mph N3.2 kmh N 4.0 mph6.4 kmh 29.05 in983.7 mb 0.00 in0.0 mm 0.00 in0.0 mm 0.00 in0.0 mm
11:02 AM 52.0°F11.1°C -167.6°F-110.9°C - 2.8 mph N4.5 kmh N 4.8 mph7.7 kmh 29.05 in983.7 mb 0.00 in0.0 mm 0.00 in0.0 mm 0.00 in0.0 mm
11:18 AM 51.8°F11.0°C -167.6°F-110.9°C - 0.6 mph N1.0 kmh N 3.4 mph5.5 kmh 29.06 in984.1 mb 0.00 in0.0 mm 0.00 in0.0 mm 0.00 in0.0 mm
11:34 AM 52.2°F11.2°C -167.6°F-110.9°C - 0.6 mph N1.0 kmh N 2.8 mph4.5 kmh 29.07 in984.4 mb 0.00 in0.0 mm 0.00 in0.0 mm 0.00 in0.0 mm
11:50 AM 52.3°F11.3°C -167.6°F-110.9°C - 1.4 mph N2.3 kmh N 4.8 mph7.7 kmh 29.07 in984.4 mb 0.00 in0.0 mm 0.00 in0.0 mm 0.00 in0.0 mm
12:01 PM 52.7°F11.5°C -167.5°F-110.8°C - 2.0 mph N3.2 kmh N 4.8 mph7.7 kmh 29.08 in984.8 mb 0.00 in0.0 mm 0.00 in0.0 mm 0.00 in0.0 mm
12:17 PM 52.7°F11.5°C -167.5°F-110.8°C - 0.6 mph N1.0 kmh N 2.8 mph4.5 kmh 29.09 in985.1 mb 0.00 in0.0 mm 0.00 in0.0 mm 0.00 in0.0 mm
12:33 PM 53.1°F11.7°C -167.5°F-110.8°C - 2.0 mph N3.2 kmh N 4.0 mph6.4 kmh 29.09 in985.1 mb 0.00 in0.0 mm 0.00 in0.0 mm 0.00 in0.0 mm
12:49 PM 53.2°F11.8°C -167.5°F-110.8°C - 2.0 mph N3.2 kmh N 6.2 mph10.0 kmh 29.10 in985.4 mb 0.00 in0.0 mm 0.00 in0.0 mm 0.00 in0.0 mm
01:05 PM 53.2°F11.8°C -167.5°F-110.8°C - 2.8 mph N4.5 kmh N 5.4 mph8.7 kmh 29.10 in985.4 mb 0.00 in0.0 mm 0.00 in0.0 mm 0.00 in0.0 mm
01:16 PM 53.1°F11.7°C -167.5°F-110.8°C - 3.4 mph N5.5 kmh N 5.4 mph8.7 kmh 29.10 in985.4 mb 0.00 in0.0 mm 0.00 in0.0 mm 0.00 in0.0 mm
01:31 PM 53.1°F11.7°C -167.5°F-110.8°C - 2.0 mph N3.2 kmh N 3.4 mph5.5 kmh 29.11 in985.8 mb 0.00 in0.0 mm 0.00 in0.0 mm 0.00 in0.0 mm
01:46 PM 53.1°F11.7°C -167.5°F-110.8°C - 2.0 mph N3.2 kmh N 4.0 mph6.4 kmh 29.12 in986.1 mb 0.00 in0.0 mm 0.00 in0.0 mm 0.00 in0.0 mm
02:02 PM 52.9°F11.6°C -167.5°F-110.8°C - 4.0 mph N6.4 kmh N 7.4 mph11.9 kmh 29.14 in986.8 mb 0.00 in0.0 mm 0.00 in0.0 mm 0.00 in0.0 mm
02:18 PM 52.0°F11.1°C -167.6°F-110.9°C - 1.4 mph N2.3 kmh N 3.4 mph5.5 kmh 29.16 in987.5 mb 0.00 in0.0 mm 0.00 in0.0 mm 0.00 in0.0 mm
02:34 PM 51.4°F10.8°C -167.7°F-110.9°C - 4.0 mph N6.4 kmh N 9.6 mph15.4 kmh 29.17 in987.8 mb 0.00 in0.0 mm 0.00 in0.0 mm 0.00 in0.0 mm
02:50 PM 51.1°F10.6°C -167.7°F-110.9°C - 2.0 mph N3.2 kmh N 5.4 mph8.7 kmh 29.17 in987.8 mb 0.00 in0.0 mm 0.00 in0.0 mm 0.00 in0.0 mm
03:01 PM 51.1°F10.6°C -167.7°F-110.9°C - 0.6 mph N1.0 kmh N 5.4 mph8.7 kmh 29.18 in988.1 mb 0.00 in0.0 mm 0.00 in0.0 mm 0.00 in0.0 mm
03:17 PM 50.5°F10.3°C -167.7°F-110.9°C - Calm Calm 2.0 mph3.2 kmh 29.18 in988.1 mb 0.00 in0.0 mm 0.00 in0.0 mm 0.00 in0.0 mm
03:33 PM 50.2°F10.1°C -167.8°F-111.0°C - 3.4 mph N5.5 kmh N 6.2 mph10.0 kmh 29.19 in988.5 mb 0.00 in0.0 mm 0.00 in0.0 mm 0.00 in0.0 mm
03:49 PM 50.0°F10.0°C -167.8°F-111.0°C - 2.0 mph N3.2 kmh N 4.8 mph7.7 kmh 29.20 in988.8 mb 0.00 in0.0 mm 0.00 in0.0 mm 0.00 in0.0 mm
04:05 PM 50.0°F10.0°C -167.8°F-111.0°C - 3.4 mph N5.5 kmh N 4.8 mph7.7 kmh 29.21 in989.2 mb 0.00 in0.0 mm 0.00 in0.0 mm 0.00 in0.0 mm
04:16 PM 49.8°F9.9°C -167.8°F-111.0°C - 3.4 mph N5.5 kmh N 7.4 mph11.9 kmh 29.21 in989.2 mb 0.00 in0.0 mm 0.00 in0.0 mm 0.00 in0.0 mm
04:32 PM 49.6°F9.8°C -167.8°F-111.0°C - 5.4 mph N8.7 kmh N 8.2 mph13.2 kmh 29.21 in989.2 mb 0.00 in0.0 mm 0.00 in0.0 mm 0.00 in0.0 mm
04:48 PM 50.0°F10.0°C -167.8°F-111.0°C - 3.4 mph N5.5 kmh N 7.4 mph11.9 kmh 29.23 in989.8 mb 0.00 in0.0 mm 0.00 in0.0 mm 0.00 in0.0 mm
05:04 PM 49.8°F9.9°C -167.8°F-111.0°C - 2.8 mph N4.5 kmh N 6.8 mph10.9 kmh 29.25 in990.5 mb 0.00 in0.0 mm 0.00 in0.0 mm 0.00 in0.0 mm
05:20 PM 48.2°F9.0°C -168.0°F-111.1°C - 2.8 mph N4.5 kmh N 6.2 mph10.0 kmh 29.26 in990.9 mb 0.00 in0.0 mm 0.00 in0.0 mm 0.00 in0.0 mm
05:36 PM 46.9°F8.3°C -168.1°F-111.2°C - 2.8 mph N4.5 kmh N 7.4 mph11.9 kmh 29.28 in991.5 mb 0.00 in0.0 mm 0.00 in0.0 mm 0.00 in0.0 mm
05:46 PM 46.4°F8.0°C -168.2°F-111.2°C - 6.2 mph N10.0 kmh N 10.2 mph16.4 kmh 29.29 in991.9 mb 0.00 in0.0 mm 0.00 in0.0 mm 0.00 in0.0 mm
06:02 PM 45.1°F7.3°C -168.3°F-111.3°C - 4.0 mph N6.4 kmh N 8.8 mph14.2 kmh 29.30 in992.2 mb 0.00 in0.0 mm 0.00 in0.0 mm 0.00 in0.0 mm
06:18 PM 43.9°F6.6°C -168.4°F-111.3°C - 2.8 mph N4.5 kmh N 5.4 mph8.7 kmh 29.31 in992.6 mb 0.00 in0.0 mm 0.00 in0.0 mm 0.00 in0.0 mm
06:34 PM 43.3°F6.3°C -168.5°F-111.4°C - 1.4 mph N2.3 kmh N 2.8 mph4.5 kmh 29.31 in992.6 mb 0.00 in0.0 mm 0.00 in0.0 mm 0.00 in0.0 mm
06:50 PM 42.8°F6.0°C -168.5°F-111.4°C - 2.8 mph N4.5 kmh N 8.2 mph13.2 kmh 29.33 in993.2 mb 0.00 in0.0 mm 0.00 in0.0 mm 0.00 in0.0 mm
07:01 PM 42.4°F5.8°C -168.6°F-111.4°C - 2.8 mph N4.5 kmh N 4.8 mph7.7 kmh 29.33 in993.2 mb 0.00 in0.0 mm 0.00 in0.0 mm 0.00 in0.0 mm
07:16 PM 42.3°F5.7°C -168.6°F-111.4°C - 2.8 mph N4.5 kmh N 6.2 mph10.0 kmh 29.34 in993.6 mb 0.00 in0.0 mm 0.00 in0.0 mm 0.00 in0.0 mm
07:31 PM 42.1°F5.6°C -168.6°F-111.4°C - 2.0 mph N3.2 kmh N 4.8 mph7.7 kmh 29.34 in993.6 mb 0.00 in0.0 mm 0.00 in0.0 mm 0.00 in0.0 mm
07:46 PM 41.9°F5.5°C -168.6°F-111.4°C - 2.0 mph N3.2 kmh N 5.4 mph8.7 kmh 29.35 in993.9 mb 0.00 in0.0 mm 0.00 in0.0 mm 0.00 in0.0 mm
08:01 PM 41.7°F5.4°C -168.6°F-111.4°C - 3.4 mph N5.5 kmh N 4.8 mph7.7 kmh 29.36 in994.2 mb 0.00 in0.0 mm 0.00 in0.0 mm 0.00 in0.0 mm
08:16 PM 41.5°F5.3°C -168.6°F-111.4°C - 1.4 mph N2.3 kmh N 3.4 mph5.5 kmh 29.36 in994.2 mb 0.00 in0.0 mm 0.00 in0.0 mm 0.00 in0.0 mm
08:31 PM 41.4°F5.2°C -168.7°F-111.5°C - 4.0 mph N6.4 kmh N 8.2 mph13.2 kmh 29.36 in994.2 mb 0.00 in0.0 mm 0.00 in0.0 mm 0.00 in0.0 mm
08:46 PM 41.2°F5.1°C -168.7°F-111.5°C - 2.0 mph N3.2 kmh N 4.0 mph6.4 kmh 29.37 in994.6 mb 0.00 in0.0 mm 0.00 in0.0 mm 0.00 in0.0 mm
09:01 PM 41.4°F5.2°C -168.7°F-111.5°C - 3.4 mph N5.5 kmh N 6.8 mph10.9 kmh 29.38 in994.9 mb 0.00 in0.0 mm 0.00 in0.0 mm 0.00 in0.0 mm
09:16 PM 41.5°F5.3°C -168.6°F-111.4°C - 3.4 mph N5.5 kmh N 7.4 mph11.9 kmh 29.39 in995.3 mb 0.00 in0.0 mm 0.00 in0.0 mm 0.00 in0.0 mm
09:31 PM 41.5°F5.3°C -168.6°F-111.4°C - 4.0 mph N6.4 kmh N 7.4 mph11.9 kmh 29.39 in995.3 mb 0.00 in0.0 mm 0.00 in0.0 mm 0.00 in0.0 mm
09:46 PM 41.5°F5.3°C -168.6°F-111.4°C - 4.0 mph N6.4 kmh N 8.8 mph14.2 kmh 29.39 in995.3 mb 0.00 in0.0 mm 0.00 in0.0 mm 0.00 in0.0 mm
10:01 PM 41.5°F5.3°C -168.6°F-111.4°C - 2.8 mph N4.5 kmh N 8.2 mph13.2 kmh 29.39 in995.3 mb 0.00 in0.0 mm 0.00 in0.0 mm 0.00 in0.0 mm
10:16 PM 41.4°F5.2°C -168.7°F-111.5°C - 3.4 mph N5.5 kmh N 6.8 mph10.9 kmh 29.40 in995.6 mb 0.00 in0.0 mm 0.00 in0.0 mm 0.00 in0.0 mm
10:31 PM 41.5°F5.3°C -168.6°F-111.4°C - 2.8 mph N4.5 kmh N 4.8 mph7.7 kmh 29.40 in995.6 mb 0.00 in0.0 mm 0.00 in0.0 mm 0.00 in0.0 mm
10:46 PM 41.4°F5.2°C -168.7°F-111.5°C - 3.4 mph N5.5 kmh N 7.4 mph11.9 kmh 29.41 in995.9 mb 0.00 in0.0 mm 0.00 in0.0 mm 0.00 in0.0 mm
11:01 PM 41.5°F5.3°C -168.6°F-111.4°C - 3.4 mph N5.5 kmh N 6.8 mph10.9 kmh 29.42 in996.3 mb 0.00 in0.0 mm 0.00 in0.0 mm 0.00 in0.0 mm
11:16 PM 41.4°F5.2°C -168.7°F-111.5°C - 2.8 mph N4.5 kmh N 6.2 mph10.0 kmh 29.42 in996.3 mb 0.00 in0.0 mm 0.00 in0.0 mm 0.00 in0.0 mm
11:31 PM 41.7°F5.4°C -168.6°F-111.4°C - 2.8 mph N4.5 kmh N 5.4 mph8.7 kmh 29.43 in996.6 mb 0.00 in0.0 mm 0.00 in0.0 mm 0.00 in0.0 mm
11:46 PM 41.5°F5.3°C -168.6°F-111.4°C - 2.0 mph N3.2 kmh N 4.8 mph7.7 kmh 29.43 in996.6 mb 0.00 in0.0 mm 0.00 in0.0 mm 0.00 in0.0 mm